createdAt,value
2024-05-09T00:01:34.449Z,1
2024-05-09T00:03:32.228Z,1
2024-05-09T00:05:33.674Z,1
2024-05-09T00:07:32.329Z,1
2024-05-09T00:09:34.582Z,1
2024-05-09T00:11:32.375Z,1
2024-05-09T00:13:34.171Z,1
2024-05-09T00:15:32.239Z,1
2024-05-09T00:17:33.948Z,1
2024-05-09T00:21:35.330Z,1
2024-05-09T00:23:32.555Z,1
2024-05-09T00:25:35.002Z,1
2024-05-09T00:27:32.683Z,1
2024-05-09T00:29:33.366Z,1
2024-05-09T00:31:32.366Z,1
2024-05-09T00:33:33.417Z,1
2024-05-09T00:35:32.515Z,1
2024-05-09T00:37:33.677Z,1
2024-05-09T00:39:32.336Z,1
2024-05-09T00:41:34.267Z,1
2024-05-09T00:43:32.309Z,1
2024-05-09T00:45:32.847Z,1
2024-05-09T00:47:33.815Z,1
2024-05-09T00:49:32.276Z,1
2024-05-09T00:51:33.116Z,1
2024-05-09T00:53:32.283Z,1
2024-05-09T00:55:30.432Z,1
2024-05-09T00:57:32.350Z,1
2024-05-09T00:59:34.705Z,1
2024-05-09T01:01:32.291Z,1
2024-05-09T01:03:33.408Z,1
2024-05-09T01:05:32.222Z,1
2024-05-09T01:07:34.625Z,1
2024-05-09T01:09:32.378Z,1
2024-05-09T01:11:33.287Z,1
2024-05-09T01:13:32.190Z,1
2024-05-09T01:15:35.593Z,1
2024-05-09T01:17:32.310Z,1
2024-05-09T01:19:34.293Z,1
2024-05-09T01:21:29.488Z,1
2024-05-09T01:23:33.813Z,1
2024-05-09T01:25:32.250Z,1
2024-05-09T01:27:32.019Z,1
2024-05-09T01:29:29.530Z,1
2024-05-09T01:31:33.627Z,1
2024-05-09T01:33:32.806Z,1
2024-05-09T01:35:32.813Z,1
2024-05-09T01:37:34.052Z,1
2024-05-09T01:39:32.470Z,1
2024-05-09T01:41:33.677Z,1
2024-05-09T01:43:32.714Z,1
2024-05-09T01:45:33.324Z,1
2024-05-09T01:47:32.456Z,1
2024-05-09T01:49:34.237Z,1
2024-05-09T01:51:32.238Z,1
2024-05-09T01:53:32.830Z,1
2024-05-09T01:55:34.199Z,1
2024-05-09T01:57:32.743Z,1
2024-05-09T01:59:34.520Z,1
2024-05-09T02:01:54.784Z,1
2024-05-09T02:03:37.741Z,1
2024-05-09T02:05:31.092Z,1
2024-05-09T02:07:34.131Z,1
2024-05-09T02:09:32.521Z,1
2024-05-09T02:11:33.380Z,1
2024-05-09T02:13:32.302Z,1
2024-05-09T02:15:33.577Z,1
2024-05-09T02:17:32.466Z,1
2024-05-09T02:19:33.835Z,1
2024-05-09T02:21:29.493Z,1
2024-05-09T02:23:33.395Z,1
2024-05-09T02:25:32.737Z,1
2024-05-09T02:27:33.152Z,1
2024-05-09T02:29:32.463Z,1
2024-05-09T02:31:34.043Z,1
2024-05-09T02:33:32.384Z,1
2024-05-09T02:35:35.057Z,1
2024-05-09T02:37:32.294Z,1
2024-05-09T02:39:33.418Z,1
2024-05-09T02:41:32.229Z,1
2024-05-09T02:43:33.272Z,1
2024-05-09T02:45:32.289Z,1
2024-05-09T02:47:33.905Z,1
2024-05-09T02:49:32.473Z,1
2024-05-09T02:51:31.638Z,1
2024-05-09T02:53:33.425Z,0
2024-05-09T02:55:32.581Z,0
2024-05-09T02:57:29.931Z,0
2024-05-09T02:59:34.385Z,0
2024-05-09T03:01:32.622Z,0.1
2024-05-09T03:03:34.718Z,0.1
2024-05-09T03:05:32.648Z,0.1
2024-05-09T03:07:32.968Z,0.2
2024-05-09T03:09:33.899Z,0.3
2024-05-09T03:11:32.385Z,0.4
2024-05-09T03:13:33.355Z,0.5
2024-05-09T03:15:32.268Z,0.7
2024-05-09T03:17:33.562Z,1
2024-05-09T03:19:32.385Z,1.3
2024-05-09T03:21:34.775Z,1.8
2024-05-09T03:23:32.364Z,2.5
2024-05-09T03:25:33.793Z,3.3
2024-05-09T03:27:32.616Z,4.5
2024-05-09T03:29:33.388Z,5.8
2024-05-09T03:31:33.839Z,7.8
2024-05-09T03:33:32.570Z,10
2024-05-09T03:35:32.860Z,12.8
2024-05-09T03:37:33.459Z,15.6
2024-05-09T03:39:32.834Z,19.1
2024-05-09T03:41:33.457Z,23.3
2024-05-09T03:43:29.688Z,23.3
2024-05-09T03:45:33.480Z,33.1
2024-05-09T03:47:32.438Z,38.5
2024-05-09T03:49:33.314Z,44.7
2024-05-09T03:51:32.492Z,49.4
2024-05-09T03:53:33.382Z,57.4
2024-05-09T03:55:32.422Z,63.4
2024-05-09T03:57:32.837Z,73.7
2024-05-09T03:59:33.059Z,81.5
2024-05-09T04:01:35.125Z,94.6
2024-05-09T04:03:33.520Z,104.6
2024-05-09T04:05:34.216Z,121.5
2024-05-09T04:07:32.237Z,134.3
2024-05-09T04:09:33.285Z,148.4
2024-05-09T04:11:32.459Z,164
2024-05-09T04:13:34.701Z,181.3
2024-05-09T04:15:32.694Z,190.6
2024-05-09T04:17:33.774Z,210.6
2024-05-09T04:19:32.680Z,232.8
2024-05-09T04:21:30.468Z,232.8
2024-05-09T04:23:32.458Z,270.4
2024-05-09T04:25:33.671Z,284.3
2024-05-09T04:27:32.618Z,314.2
2024-05-09T04:29:33.872Z,330.3
2024-05-09T04:31:32.309Z,365
2024-05-09T04:33:35.371Z,383.8
2024-05-09T04:35:32.385Z,403.4
2024-05-09T04:37:33.970Z,424.1
2024-05-09T04:39:32.578Z,445.9
2024-05-09T04:41:33.372Z,468.7
2024-05-09T04:43:30.856Z,518
2024-05-09T04:47:33.457Z,572.5
2024-05-09T04:49:32.408Z,632.7
2024-05-09T04:51:33.448Z,665.1
2024-05-09T04:53:31.154Z,699.2
2024-05-09T04:55:35.191Z,735.1
2024-05-09T04:57:29.426Z,735.1
2024-05-09T04:59:34.980Z,812.4
2024-05-09T05:01:32.655Z,854.1
2024-05-09T05:03:34.748Z,897.8
2024-05-09T05:05:32.848Z,943.9
2024-05-09T05:07:33.386Z,943.9
2024-05-09T05:09:32.320Z,1152.9
2024-05-09T05:11:33.555Z,1212
2024-05-09T05:13:32.209Z,1274.1
2024-05-09T05:15:33.307Z,1408.1
2024-05-09T05:17:32.991Z,1480.3
2024-05-09T05:19:38.365Z,1556.2
2024-05-09T05:21:32.219Z,1636
2024-05-09T05:23:33.395Z,1719.9
2024-05-09T05:25:32.281Z,1808
2024-05-09T05:27:35.220Z,1808
2024-05-09T05:29:32.407Z,1900.7
2024-05-09T05:33:33.971Z,2100.6
2024-05-09T05:35:32.450Z,2208.3
2024-05-09T05:37:33.755Z,2321.6
2024-05-09T05:39:32.710Z,2321.6
2024-05-09T05:41:33.442Z,2440.6
2024-05-09T05:43:32.403Z,2565.7
2024-05-09T05:45:37.454Z,2697.3
2024-05-09T05:47:32.468Z,2835.6
2024-05-09T05:49:33.480Z,2981
2024-05-09T05:51:32.254Z,3133.8
2024-05-09T05:53:33.275Z,3294.5
2024-05-09T05:55:32.929Z,3463.4
2024-05-09T05:57:33.359Z,3641
2024-05-09T05:59:33.102Z,3641
2024-05-09T06:01:34.023Z,3827.6
2024-05-09T06:03:32.511Z,4023.9
2024-05-09T06:05:34.474Z,4230.2
2024-05-09T06:07:32.232Z,4230.2
2024-05-09T06:09:34.595Z,4447.1
2024-05-09T06:11:31.163Z,4675.1
2024-05-09T06:13:33.687Z,4914.8
2024-05-09T06:15:32.768Z,4914.8
2024-05-09T06:17:35.482Z,4914.8
2024-05-09T06:19:29.590Z,4914.8
2024-05-09T06:21:33.765Z,5431.7
2024-05-09T06:23:31.235Z,5710.1
2024-05-09T06:25:33.537Z,5710.1
2024-05-09T06:27:32.402Z,5710.1
2024-05-09T06:31:33.961Z,5710.1
2024-05-09T06:33:32.814Z,6002.9
2024-05-09T06:35:33.689Z,5710.1
2024-05-09T06:37:32.223Z,6002.9
2024-05-09T06:39:33.182Z,6002.9
2024-05-09T06:41:32.491Z,6002.9
2024-05-09T06:43:33.974Z,6002.9
2024-05-09T06:45:32.482Z,6002.9
2024-05-09T06:47:37.590Z,6002.9
2024-05-09T06:49:32.464Z,6310.7
2024-05-09T06:51:33.976Z,6310.7
2024-05-09T06:53:32.459Z,6634.2
2024-05-09T06:55:32.816Z,6974.4
2024-05-09T06:57:33.360Z,7332
2024-05-09T06:59:32.588Z,8103.1
2024-05-09T07:01:33.533Z,8955.3
2024-05-09T07:03:32.441Z,9897.1
2024-05-09T07:05:35.105Z,9897.1
2024-05-09T07:07:32.673Z,9897.1
2024-05-09T07:09:34.053Z,10938
2024-05-09T07:11:32.551Z,14044.7
2024-05-09T07:13:33.194Z,8103.1
2024-05-09T07:15:32.277Z,6310.7
2024-05-09T07:17:37.501Z,5166.8
2024-05-09T07:19:32.306Z,4914.8
2024-05-09T07:23:33.604Z,5166.8
2024-05-09T07:25:32.468Z,5431.7
2024-05-09T07:27:32.906Z,5166.8
2024-05-09T07:29:35.573Z,4675.1
2024-05-09T07:31:32.318Z,4447.1
2024-05-09T07:33:33.606Z,4447.1
2024-05-09T07:35:32.450Z,4447.1
2024-05-09T07:37:35.175Z,4675.1
2024-05-09T07:39:32.266Z,4675.1
2024-05-09T07:41:34.340Z,4675.1
2024-05-09T07:43:32.481Z,4675.1
2024-05-09T07:52:32.915Z,4914.8
2024-05-09T07:53:37.429Z,5166.8
2024-05-09T07:55:33.976Z,5166.8
2024-05-09T07:57:32.366Z,5166.8
2024-05-09T07:59:35.148Z,5166.8
2024-05-09T08:01:33.460Z,5166.8
2024-05-09T08:03:33.953Z,5431.7
2024-05-09T08:05:32.444Z,5431.7
2024-05-09T08:07:34.365Z,5431.7
2024-05-09T08:09:32.479Z,5431.7
2024-05-09T08:11:33.937Z,5431.7
2024-05-09T08:13:32.244Z,3641
2024-05-09T08:15:33.816Z,5431.7
2024-05-09T08:17:32.352Z,5710.1
2024-05-09T08:19:35.433Z,6002.9
2024-05-09T08:21:29.439Z,6002.9
2024-05-09T08:23:34.411Z,6002.9
2024-05-09T08:25:32.518Z,4230.2
2024-05-09T08:29:34.683Z,6310.7
2024-05-09T08:31:32.453Z,6310.7
2024-05-09T08:33:33.514Z,4675.1
2024-05-09T08:35:32.481Z,6634.2
2024-05-09T08:37:36.826Z,4675.1
2024-05-09T08:39:32.258Z,6310.7
2024-05-09T08:41:32.894Z,4914.8
2024-05-09T08:43:35.688Z,4914.8
2024-05-09T08:45:32.439Z,6974.4
2024-05-09T08:47:34.101Z,5431.7
2024-05-09T08:49:32.486Z,6002.9
2024-05-09T08:51:33.965Z,6310.7
2024-05-09T08:53:32.988Z,8103.1
2024-05-09T08:55:33.916Z,8518.5
2024-05-09T08:57:32.283Z,8103.1
2024-05-09T09:01:34.834Z,8955.3
2024-05-09T09:03:29.631Z,8955.3
2024-05-09T09:05:34.576Z,9897.1
2024-05-09T09:07:32.619Z,9897.1
2024-05-09T09:09:33.438Z,9414.4
2024-05-09T09:11:32.378Z,9414.4
2024-05-09T09:13:33.089Z,8955.3
2024-05-09T09:17:34.227Z,9414.4
2024-05-09T09:19:32.354Z,7707.9
2024-05-09T09:21:33.577Z,6974.4
2024-05-09T09:23:32.610Z,6974.4
2024-05-09T09:25:34.515Z,6974.4
2024-05-09T09:27:32.481Z,6974.4
2024-05-09T09:29:33.411Z,7332
2024-05-09T09:31:31.246Z,8103.1
2024-05-09T09:33:35.158Z,8518.5
2024-05-09T09:35:32.380Z,9414.4
2024-05-09T09:37:33.013Z,9897.1
2024-05-09T09:39:34.050Z,10404.6
2024-05-09T09:41:32.332Z,10938
2024-05-09T09:43:34.771Z,10938
2024-05-09T09:45:32.409Z,12708.2
2024-05-09T09:47:33.670Z,12708.2
2024-05-09T09:49:32.335Z,10938
2024-05-09T09:51:34.404Z,11498.8
2024-05-09T09:53:32.260Z,10404.6
2024-05-09T09:55:37.736Z,9414.4
2024-05-09T09:57:32.364Z,9897.1
2024-05-09T09:59:34.769Z,10938
2024-05-09T10:01:32.440Z,11498.8
2024-05-09T10:03:34.408Z,12088.4
2024-05-09T10:05:32.434Z,12088.4
2024-05-09T10:07:33.385Z,14764.8
2024-05-09T10:09:32.273Z,12088.4
2024-05-09T10:11:39.506Z,13359.7
2024-05-09T10:13:32.845Z,15521.8
2024-05-09T10:15:35.772Z,12708.2
2024-05-09T10:17:32.408Z,12088.4
2024-05-09T10:19:34.091Z,12708.2
2024-05-09T10:21:32.543Z,14764.8
2024-05-09T10:23:34.002Z,13359.7
2024-05-09T10:25:29.528Z,13359.7
2024-05-09T10:27:34.563Z,13359.7
2024-05-09T10:29:32.384Z,13359.7
2024-05-09T10:33:37.479Z,13359.7
2024-05-09T10:35:32.388Z,14044.7
2024-05-09T10:37:35.280Z,13359.7
2024-05-09T10:39:29.572Z,13359.7
2024-05-09T10:41:35.300Z,13359.7
2024-05-09T10:43:32.555Z,13359.7
2024-05-09T10:45:33.351Z,14764.8
2024-05-09T10:47:33.247Z,14044.7
2024-05-09T10:49:33.449Z,12708.2
2024-05-09T10:51:32.538Z,11498.8
2024-05-09T10:53:33.454Z,12708.2
2024-05-09T10:55:32.392Z,13359.7
2024-05-09T10:57:34.947Z,13359.7
2024-05-09T10:59:32.629Z,14044.7
2024-05-09T11:01:33.744Z,14044.7
2024-05-09T11:03:32.462Z,12088.4
2024-05-09T11:05:34.371Z,12708.2
2024-05-09T11:07:32.456Z,12708.2
2024-05-09T11:09:34.301Z,13359.7
2024-05-09T11:11:32.379Z,14764.8
2024-05-09T11:13:33.085Z,13359.7
2024-05-09T11:15:32.423Z,14764.8
2024-05-09T11:17:34.755Z,14044.7
2024-05-09T11:19:32.348Z,14044.7
2024-05-09T11:21:33.708Z,14044.7
2024-05-09T11:23:31.002Z,14044.7
2024-05-09T11:25:33.390Z,11498.8
2024-05-09T11:27:32.861Z,10938
2024-05-09T11:29:34.445Z,9897.1
2024-05-09T11:31:31.290Z,11498.8
2024-05-09T11:35:33.789Z,10404.6
2024-05-09T11:37:34.648Z,9897.1
2024-05-09T11:39:33.523Z,9414.4
2024-05-09T11:41:32.487Z,8518.5
2024-05-09T11:43:33.757Z,8955.3
2024-05-09T11:45:32.335Z,9414.4
2024-05-09T11:47:33.479Z,7707.9
2024-05-09T11:49:32.470Z,8955.3
2024-05-09T11:51:33.099Z,8103.1
2024-05-09T11:53:38.249Z,7332
2024-05-09T11:55:32.331Z,9897.1
2024-05-09T11:57:35.053Z,10404.6
2024-05-09T11:59:32.336Z,7707.9
2024-05-09T12:01:35.564Z,7332
2024-05-09T12:03:32.561Z,8103.1
2024-05-09T12:05:34.922Z,8103.1
2024-05-09T12:07:32.617Z,8103.1
2024-05-09T12:09:33.450Z,8518.5
2024-05-09T12:11:29.698Z,11498.8
2024-05-09T12:13:34.823Z,10938
2024-05-09T12:15:32.442Z,8103.1
2024-05-09T12:17:33.732Z,8955.3
2024-05-09T12:19:32.310Z,10404.6
2024-05-09T12:21:33.216Z,9414.4
2024-05-09T12:23:32.432Z,10938
2024-05-09T12:25:33.619Z,10938
2024-05-09T12:27:32.413Z,10938
2024-05-09T12:29:34.401Z,10938
2024-05-09T12:31:32.572Z,10404.6
2024-05-09T12:33:34.740Z,10404.6
2024-05-09T12:35:32.405Z,9414.4
2024-05-09T12:37:33.340Z,8518.5
2024-05-09T12:39:32.284Z,6974.4
2024-05-09T12:41:34.630Z,9897.1
2024-05-09T12:43:32.437Z,9414.4
2024-05-09T12:45:34.039Z,9414.4
2024-05-09T12:47:32.431Z,7707.9
2024-05-09T12:49:34.090Z,6974.4
2024-05-09T12:51:32.834Z,6974.4
2024-05-09T12:53:33.521Z,7707.9
2024-05-09T12:57:33.442Z,8955.3
2024-05-09T12:59:32.663Z,9897.1
2024-05-09T13:01:34.489Z,9414.4
2024-05-09T13:03:32.599Z,8955.3
2024-05-09T13:05:35.500Z,8518.5
2024-05-09T13:07:32.187Z,8103.1
2024-05-09T13:09:33.638Z,8103.1
2024-05-09T13:11:32.611Z,8103.1
2024-05-09T13:13:34.310Z,7707.9
2024-05-09T13:15:31.520Z,5710.1
2024-05-09T13:17:34.052Z,5431.7
2024-05-09T13:19:32.376Z,5710.1
2024-05-09T13:21:33.993Z,6310.7
2024-05-09T13:23:32.332Z,8955.3
2024-05-09T13:25:35.562Z,9414.4
2024-05-09T13:27:29.498Z,9414.4
2024-05-09T13:29:34.041Z,9414.4
2024-05-09T13:31:32.724Z,8955.3
2024-05-09T13:33:34.698Z,8518.5
2024-05-09T13:35:32.406Z,8518.5
2024-05-09T13:37:33.714Z,7707.9
2024-05-09T13:39:32.350Z,7707.9
2024-05-09T13:41:34.905Z,7707.9
2024-05-09T13:43:32.357Z,7332
2024-05-09T13:45:33.666Z,7332
2024-05-09T13:47:32.423Z,7332
2024-05-09T13:49:34.051Z,6974.4
2024-05-09T13:51:32.351Z,6974.4
2024-05-09T13:53:33.557Z,6974.4
2024-05-09T13:55:32.563Z,6974.4
2024-05-09T13:57:36.075Z,6974.4
2024-05-09T13:59:32.426Z,6974.4
2024-05-09T14:01:35.966Z,6974.4
2024-05-09T14:03:32.801Z,6974.4
2024-05-09T14:09:34.622Z,6310.7
2024-05-09T14:11:32.386Z,6634.2
2024-05-09T14:13:33.672Z,6634.2
2024-05-09T14:15:31.114Z,6002.9
2024-05-09T14:17:33.643Z,5710.1
2024-05-09T14:19:32.500Z,6002.9
2024-05-09T14:21:36.624Z,5710.1
2024-05-09T14:23:32.349Z,5710.1
2024-05-09T14:25:35.181Z,5710.1
2024-05-09T14:27:31.323Z,6002.9
2024-05-09T14:29:33.599Z,5710.1
2024-05-09T14:31:32.703Z,5710.1
2024-05-09T14:33:34.541Z,5710.1
2024-05-09T14:35:29.451Z,5710.1
2024-05-09T14:37:36.232Z,5431.7
2024-05-09T14:39:32.312Z,5166.8
2024-05-09T14:41:34.989Z,5166.8
2024-05-09T14:43:32.754Z,5431.7
2024-05-09T14:45:34.816Z,5431.7
2024-05-09T14:47:29.559Z,5431.7
2024-05-09T14:51:35.408Z,4914.8
2024-05-09T14:53:29.487Z,4914.8
2024-05-09T14:55:33.740Z,5166.8
2024-05-09T14:57:32.337Z,5431.7
2024-05-09T14:59:33.144Z,3463.4
2024-05-09T15:01:32.383Z,3133.8
2024-05-09T15:07:34.005Z,4675.1
2024-05-09T15:09:32.549Z,4675.1
2024-05-09T15:11:33.926Z,4675.1
2024-05-09T15:13:32.466Z,4675.1
2024-05-09T15:15:33.663Z,4675.1
2024-05-09T15:17:32.700Z,4675.1
2024-05-09T15:19:33.760Z,4675.1
2024-05-09T15:21:32.437Z,4675.1
2024-05-09T15:23:33.947Z,4675.1
2024-05-09T15:25:32.483Z,4675.1
2024-05-09T15:27:33.348Z,4447.1
2024-05-09T15:29:32.590Z,4447.1
2024-05-09T15:31:33.807Z,4447.1
2024-05-09T15:33:32.389Z,4447.1
2024-05-09T15:35:34.187Z,4230.2
2024-05-09T15:37:32.516Z,4230.2
2024-05-09T15:39:33.498Z,4230.2
2024-05-09T15:41:32.275Z,4230.2
2024-05-09T15:43:32.122Z,4230.2
2024-05-09T15:45:32.617Z,4230.2
2024-05-09T15:47:33.294Z,4447.1
2024-05-09T15:49:32.897Z,4230.2
2024-05-09T15:51:35.205Z,4230.2
2024-05-09T15:53:32.294Z,4230.2
2024-05-09T15:55:34.681Z,3827.6
2024-05-09T15:57:32.331Z,3827.6
2024-05-09T15:59:33.633Z,3641
2024-05-09T16:01:32.595Z,3641
2024-05-09T16:03:33.367Z,3641
2024-05-09T16:05:32.419Z,3641
2024-05-09T16:07:34.042Z,3463.4
2024-05-09T16:09:32.415Z,3463.4
2024-05-09T16:11:34.237Z,3463.4
2024-05-09T16:13:32.386Z,3463.4
2024-05-09T16:15:33.180Z,3463.4
2024-05-09T16:17:32.992Z,3294.5
2024-05-09T16:19:33.272Z,3294.5
2024-05-09T16:21:32.515Z,3294.5
2024-05-09T16:23:34.406Z,3294.5
2024-05-09T16:25:32.525Z,3294.5
2024-05-09T16:27:33.610Z,3294.5
2024-05-09T16:29:32.377Z,3294.5
2024-05-09T16:31:31.802Z,3294.5
2024-05-09T16:33:32.510Z,3133.8
2024-05-09T16:35:33.273Z,2981
2024-05-09T16:37:32.330Z,2981
2024-05-09T16:39:33.336Z,2835.6
2024-05-09T16:41:32.295Z,2835.6
2024-05-09T16:43:33.401Z,2697.3
2024-05-09T16:45:32.489Z,2697.3
2024-05-09T16:47:34.916Z,2697.3
2024-05-09T16:49:31.166Z,2697.3
2024-05-09T16:51:34.253Z,2697.3
2024-05-09T16:53:32.536Z,2697.3
2024-05-09T16:55:35.077Z,2565.7
2024-05-09T16:57:33.028Z,2565.7
2024-05-09T16:59:32.046Z,2565.7
2024-05-09T17:01:32.884Z,2565.7
2024-05-09T17:03:34.546Z,2565.7
2024-05-09T17:05:32.581Z,2440.6
2024-05-09T17:07:33.870Z,2440.6
2024-05-09T17:09:32.307Z,2321.6
2024-05-09T17:11:37.984Z,2208.3
2024-05-09T17:13:32.592Z,2208.3
2024-05-09T17:15:36.694Z,2100.6
2024-05-09T17:17:32.500Z,2100.6
2024-05-09T17:19:33.844Z,1998.2
2024-05-09T17:21:32.564Z,1998.2
2024-05-09T17:23:35.122Z,1900.7
2024-05-09T17:25:34.039Z,1900.7
2024-05-09T17:27:33.613Z,1808
2024-05-09T17:29:32.549Z,1719.9
2024-05-09T17:31:32.428Z,1719.9
2024-05-09T17:33:32.653Z,1636
2024-05-09T17:35:35.738Z,1556.2
2024-05-09T17:37:32.399Z,1480.3
2024-05-09T17:39:33.312Z,1408.1
2024-05-09T17:41:32.299Z,1339.4
2024-05-09T17:43:34.153Z,1339.4
2024-05-09T17:45:32.826Z,1274.1
2024-05-09T17:47:34.711Z,1212
2024-05-09T17:49:32.589Z,1152.9
2024-05-09T17:51:35.076Z,1096.6
2024-05-09T17:53:32.598Z,1043.1
2024-05-09T17:55:34.396Z,992.3
2024-05-09T17:57:31.047Z,943.9
2024-05-09T17:59:36.192Z,854.1
2024-05-09T18:01:32.624Z,812.4
2024-05-09T18:03:33.665Z,735.1
2024-05-09T18:05:32.889Z,699.2
2024-05-09T18:07:34.460Z,665.1
2024-05-09T18:09:29.529Z,665.1
2024-05-09T18:11:33.631Z,572.5
2024-05-09T18:13:29.536Z,572.5
2024-05-09T18:15:35.183Z,518
2024-05-09T18:17:32.538Z,468.7
2024-05-09T18:19:36.329Z,445.9
2024-05-09T18:21:32.877Z,403.4
2024-05-09T18:25:34.640Z,347.2
2024-05-09T18:27:32.764Z,298.9
2024-05-09T18:29:35.843Z,270.4
2024-05-09T18:31:32.494Z,244.7
2024-05-09T18:33:36.065Z,210.6
2024-05-09T18:35:32.477Z,190.6
2024-05-09T18:37:33.292Z,156
2024-05-09T18:39:32.706Z,134.3
2024-05-09T18:41:34.051Z,104.6
2024-05-09T18:43:35.167Z,85.6
2024-05-09T18:45:38.001Z,66.7
2024-05-09T18:47:32.513Z,51.9
2024-05-09T18:49:34.018Z,40.4
2024-05-09T18:51:33.068Z,31.5
2024-05-09T18:53:33.264Z,24.5
2024-05-09T18:55:32.583Z,18.2
2024-05-09T18:57:35.070Z,13.5
2024-05-09T18:59:32.910Z,10
2024-05-09T19:01:34.302Z,7.4
2024-05-09T19:03:32.692Z,5.5
2024-05-09T19:05:33.481Z,4.1
2024-05-09T19:07:32.577Z,3
2024-05-09T19:09:33.292Z,2.1
2024-05-09T19:11:32.502Z,1.6
2024-05-09T19:13:33.816Z,1.2
2024-05-09T19:15:32.454Z,0.8
2024-05-09T19:19:33.865Z,0.4
2024-05-09T19:21:32.602Z,0.3
2024-05-09T19:23:32.490Z,0.3
2024-05-09T19:25:38.158Z,0.1
2024-05-09T19:27:32.327Z,0.1
2024-05-09T19:29:33.901Z,0.1
2024-05-09T19:31:32.543Z,0
2024-05-09T19:33:33.744Z,0
2024-05-09T19:35:38.047Z,0
2024-05-09T19:37:32.489Z,0
2024-05-09T19:39:33.378Z,0
2024-05-09T19:41:32.463Z,0
2024-05-09T19:43:36.028Z,1
2024-05-09T19:45:33.445Z,1
2024-05-09T19:47:33.322Z,1
2024-05-09T19:49:32.526Z,1
2024-05-09T19:51:33.530Z,1
2024-05-09T19:53:32.473Z,1
2024-05-09T19:55:33.581Z,1
2024-05-09T19:57:32.662Z,1
2024-05-09T19:59:33.280Z,1
2024-05-09T20:01:32.921Z,1
2024-05-09T20:03:33.539Z,1
2024-05-09T20:05:33.082Z,1
2024-05-09T20:07:36.118Z,1
2024-05-09T20:09:32.646Z,1
2024-05-09T20:11:35.650Z,1
2024-05-09T20:13:32.493Z,1
2024-05-09T20:15:35.897Z,1
2024-05-09T20:17:32.637Z,1
2024-05-09T20:19:37.974Z,1
2024-05-09T20:21:32.548Z,1
2024-05-09T20:23:33.332Z,1
2024-05-09T20:25:32.567Z,1
2024-05-09T20:27:33.749Z,1
2024-05-09T20:29:32.530Z,1
2024-05-09T20:31:37.779Z,1
2024-05-09T20:33:32.949Z,1
2024-05-09T20:35:33.592Z,1
2024-05-09T20:37:32.587Z,1
2024-05-09T20:39:33.304Z,1
2024-05-09T20:41:34.408Z,1
2024-05-09T20:43:33.316Z,1
2024-05-09T20:45:32.995Z,1
2024-05-09T20:47:33.471Z,1
2024-05-09T20:49:32.768Z,1
2024-05-09T20:51:33.497Z,1
2024-05-09T20:53:32.422Z,1
2024-05-09T20:55:35.199Z,1
2024-05-09T20:57:32.477Z,1
2024-05-09T20:59:33.327Z,1
2024-05-09T21:01:32.518Z,1
2024-05-09T21:03:33.431Z,1
2024-05-09T21:05:32.929Z,1
2024-05-09T21:07:34.628Z,1
2024-05-09T21:09:32.594Z,1
2024-05-09T21:11:35.158Z,1
2024-05-09T21:13:32.688Z,1
2024-05-09T21:15:36.173Z,1
2024-05-09T21:17:32.977Z,1
2024-05-09T21:19:35.087Z,1
2024-05-09T21:21:32.450Z,1
2024-05-09T21:23:33.862Z,1
2024-05-09T21:25:32.603Z,1
2024-05-09T21:27:34.269Z,1
2024-05-09T21:29:32.625Z,1
2024-05-09T21:31:34.374Z,1
2024-05-09T21:33:32.445Z,1
2024-05-09T21:35:34.236Z,1
2024-05-09T21:37:32.447Z,1
2024-05-09T21:39:33.688Z,1
2024-05-09T21:41:32.453Z,1
2024-05-09T21:43:35.983Z,1
2024-05-09T21:45:32.577Z,1
2024-05-09T21:47:34.017Z,1
2024-05-09T21:49:31.255Z,1
2024-05-09T21:51:35.263Z,1
2024-05-09T21:53:33.894Z,1
2024-05-09T21:55:33.878Z,1
2024-05-09T21:57:32.591Z,1
2024-05-09T21:59:33.642Z,1
2024-05-09T22:01:32.811Z,1
2024-05-09T22:03:35.449Z,1
2024-05-09T22:05:32.814Z,1
2024-05-09T22:07:36.705Z,1
2024-05-09T22:09:29.552Z,1
2024-05-09T22:11:33.388Z,1
2024-05-09T22:13:32.513Z,1
2024-05-09T22:15:35.616Z,1
2024-05-09T22:17:32.731Z,1
2024-05-09T22:19:34.547Z,1
2024-05-09T22:21:32.472Z,1
2024-05-09T22:23:33.495Z,1
2024-05-09T22:25:33.271Z,1
2024-05-09T22:27:35.158Z,1
2024-05-09T22:29:32.562Z,1
2024-05-09T22:31:35.177Z,1
2024-05-09T22:33:32.737Z,1
2024-05-09T22:35:33.404Z,1
2024-05-09T22:37:29.608Z,1
2024-05-09T22:41:34.462Z,1
2024-05-09T22:43:32.617Z,1
2024-05-09T22:45:38.565Z,1
2024-05-09T22:47:32.679Z,1
2024-05-09T22:49:34.605Z,1
2024-05-09T22:51:32.525Z,1
2024-05-09T22:53:33.819Z,1
2024-05-09T22:55:31.418Z,1
2024-05-09T22:57:34.588Z,1
2024-05-09T22:59:32.494Z,1
2024-05-09T23:05:34.857Z,1
2024-05-09T23:07:32.494Z,1
2024-05-09T23:09:33.400Z,1
2024-05-09T23:11:32.446Z,1
2024-05-09T23:13:33.314Z,1
2024-05-09T23:15:29.562Z,1
2024-05-09T23:17:33.836Z,1
2024-05-09T23:19:32.492Z,1
2024-05-09T23:21:30.498Z,1
2024-05-09T23:23:32.514Z,1
2024-05-09T23:25:34.983Z,1
2024-05-09T23:27:32.429Z,1
2024-05-09T23:29:33.892Z,1
2024-05-09T23:31:32.644Z,1
2024-05-09T23:33:34.410Z,1
2024-05-09T23:35:32.946Z,1
2024-05-09T23:37:36.000Z,1
2024-05-09T23:39:32.551Z,1
2024-05-09T23:41:36.117Z,1
2024-05-09T23:43:32.455Z,1
2024-05-09T23:45:35.654Z,1
2024-05-09T23:47:32.720Z,1
2024-05-09T23:49:33.552Z,1
2024-05-09T23:51:32.411Z,1
2024-05-09T23:53:35.601Z,1
2024-05-09T23:55:32.852Z,1
2024-05-09T23:57:35.092Z,1
2024-05-09T23:59:33.089Z,1
